Time;durP1;ratioP1;P1;durP2;ratioP2;P2;SDS_P1;SDS_P2;PMS_P1;PMS_P2;Temp;Humidity;BMP_temperature;BMP_pressure;BME280_temperature;BME280_humidity;BME280_pressure;Samples;Min_cycle;Max_cycle;Signal;HPM_P1;HPM_P2
2021/03/25 00:01:53;;;;;;;9.47;6.40;;;;;;;-0.37;66.14;99468.98;1808776;79;21172;-66
2021/03/25 00:04:22;;;;;;;8.90;5.45;;;;;;;-0.36;66.10;99469.00;1808540;78;21354;-67
2021/03/25 00:06:54;;;;;;;8.23;5.47;;;;;;;-0.33;66.07;99469.86;1808527;79;21073;-66
2021/03/25 00:09:29;;;;;;;7.78;5.30;;;;;;;-0.31;66.04;99466.45;1779576;79;21176;-66
2021/03/25 00:11:57;;;;;;;8.75;5.60;;;;;;;-0.29;66.06;99472.43;1808518;79;21045;-67
2021/03/25 00:14:25;;;;;;;6.55;4.55;;;;;;;-0.26;66.06;99470.31;1808524;79;21105;-67
2021/03/25 00:16:54;;;;;;;7.22;4.95;;;;;;;-0.25;66.00;99465.63;1808495;79;21375;-67
2021/03/25 00:19:24;;;;;;;6.97;4.92;;;;;;;-0.25;65.97;99465.20;1808406;79;21128;-67
2021/03/25 00:21:51;;;;;;;7.25;4.72;;;;;;;-0.22;65.94;99472.03;1808277;78;21140;-67
2021/03/25 00:24:20;;;;;;;7.55;4.87;;;;;;;-0.22;65.90;99466.92;1808483;79;21097;-67
2021/03/25 00:26:48;;;;;;;6.47;4.87;;;;;;;-0.23;65.89;99462.66;1808484;79;21049;-67
2021/03/25 00:29:16;;;;;;;7.22;4.92;;;;;;;-0.25;65.88;99466.48;1808485;79;21353;-67
2021/03/25 00:31:46;;;;;;;7.22;4.80;;;;;;;-0.27;65.80;99464.77;1808282;79;20998;-67
2021/03/25 00:34:14;;;;;;;7.95;5.12;;;;;;;-0.27;65.83;99460.94;1807898;78;21010;-67
2021/03/25 00:36:42;;;;;;;7.05;4.70;;;;;;;-0.27;65.75;99463.49;1807920;79;21556;-67
2021/03/25 00:39:11;;;;;;;6.55;5.00;;;;;;;-0.29;65.79;99461.36;1807891;79;21069;-67
2021/03/25 00:41:39;;;;;;;8.93;5.40;;;;;;;-0.30;65.85;99460.92;1807896;79;21354;-67
2021/03/25 00:44:11;;;;;;;6.35;4.70;;;;;;;-0.33;65.93;99464.32;1807905;78;21060;-67
2021/03/25 00:46:41;;;;;;;7.58;4.45;;;;;;;-0.33;66.07;99459.64;1808148;79;21045;-67
2021/03/25 00:49:09;;;;;;;7.00;4.78;;;;;;;-0.32;66.19;99462.20;1808001;79;21053;-67
2021/03/25 00:51:36;;;;;;;7.42;5.30;;;;;;;-0.34;66.34;99463.89;1807863;78;21045;-67
2021/03/25 00:54:06;;;;;;;9.48;5.25;;;;;;;-0.37;66.44;99460.91;1807885;79;21168;-67
2021/03/25 00:56:37;;;;;;;8.68;5.47;;;;;;;-0.41;66.55;99452.83;1807852;79;21109;-67
2021/03/25 00:59:04;;;;;;;8.23;4.78;;;;;;;-0.42;66.64;99454.95;1807915;79;21132;-67
2021/03/25 01:01:32;;;;;;;6.03;4.45;;;;;;;-0.43;66.73;99458.78;1807845;79;21132;-67
2021/03/25 01:04:01;;;;;;;7.35;5.17;;;;;;;-0.44;66.83;99457.92;1807913;79;21081;-68
2021/03/25 01:06:28;;;;;;;7.50;4.78;;;;;;;-0.45;66.92;99452.81;1807893;78;21656;-67
2021/03/25 01:08:56;;;;;;;8.60;5.05;;;;;;;-0.45;66.88;99454.94;1807837;78;21097;-67
2021/03/25 01:11:27;;;;;;;8.45;5.58;;;;;;;-0.49;66.89;99448.53;1807868;79;21565;-67
2021/03/25 01:14:01;;;;;;;6.87;4.92;;;;;;;-0.51;66.80;99454.06;1808013;79;21053;-67
2021/03/25 01:16:34;;;;;;;6.08;4.65;;;;;;;-0.52;66.90;99445.55;1807941;79;21477;-67
2021/03/25 01:19:06;;;;;;;6.65;4.78;;;;;;;-0.52;66.82;99447.24;1805212;79;21372;-66
2021/03/25 01:21:35;;;;;;;6.75;5.25;;;;;;;-0.54;66.85;99447.23;1779063;79;21120;-66
2021/03/25 01:24:06;;;;;;;8.20;5.47;;;;;;;-0.52;66.72;99449.80;1779188;79;21105;-66
2021/03/25 01:26:34;;;;;;;6.50;4.42;;;;;;;-0.49;66.67;99453.64;1807908;79;21105;-67
2021/03/25 01:29:03;;;;;;;8.93;4.70;;;;;;;-0.46;66.50;99449.83;1807953;79;21109;-67
2021/03/25 01:31:32;;;;;;;6.70;4.55;;;;;;;-0.44;66.33;99449.41;1753726;79;21206;-66
2021/03/25 01:34:02;;;;;;;6.45;5.00;;;;;;;-0.42;66.22;99442.17;1778766;79;21062;-67
2021/03/25 01:36:30;;;;;;;7.70;5.33;;;;;;;-0.40;66.17;99446.84;1807872;79;20911;-67
2021/03/25 01:39:00;;;;;;;6.10;4.83;;;;;;;-0.42;66.16;99445.16;1807925;79;20958;-67
2021/03/25 01:41:31;;;;;;;10.45;4.90;;;;;;;-0.44;66.09;99440.46;1807838;78;21042;-68
2021/03/25 01:44:01;;;;;;;7.85;5.17;;;;;;;-0.43;66.06;99439.62;1807891;78;22257;-67
2021/03/25 01:46:39;;;;;;;7.15;4.45;;;;;;;-0.45;66.02;99438.76;1807815;79;21192;-67
2021/03/25 01:49:11;;;;;;;7.80;4.83;;;;;;;-0.45;65.97;99437.48;1807873;79;21062;-67
2021/03/25 01:52:19;;;;;;;9.38;5.25;;;;;;;-0.50;66.01;99438.73;1807870;79;21061;-67
2021/03/25 01:55:19;;;;;;;7.97;4.83;;;;;;;-0.52;66.14;99439.16;1807901;79;21459;-66
2021/03/25 01:58:20;;;;;;;6.42;4.55;;;;;;;-0.57;66.28;99440.84;1807874;79;21188;-67
2021/03/25 02:01:10;;;;;;;6.28;4.47;;;;;;;-0.59;66.10;99435.30;1807808;78;21089;-67
2021/03/25 02:04:09;;;;;;;6.92;4.47;;;;;;;-0.63;65.98;99439.56;1807869;78;21036;-66
2021/03/25 02:07:03;;;;;;;7.03;4.67;;;;;;;-0.65;65.99;99436.16;1775031;78;21073;-67
2021/03/25 02:09:39;;;;;;;7.83;5.15;;;;;;;-0.65;66.15;99435.30;1807902;78;21042;-66
2021/03/25 02:13:01;;;;;;;8.20;4.85;;;;;;;-0.63;66.14;99428.50;1888725;76;22868;-67
2021/03/25 02:16:05;;;;;;;6.40;4.30;;;;;;;-0.70;66.23;99434.00;1775398;80;21483;-67
2021/03/25 02:18:48;;;;;;;7.95;5.20;;;;;;;-0.71;66.17;99431.88;1816670;77;22326;-67
2021/03/25 02:21:52;;;;;;;14.87;4.65;;;;;;;-0.73;66.17;99439.09;1849907;77;21159;-67
2021/03/25 02:24:40;;;;;;;8.53;4.80;;;;;;;-0.73;66.23;99431.01;1849015;77;21024;-67
2021/03/25 02:27:41;;;;;;;8.10;4.55;;;;;;;-0.77;66.34;99432.27;1849618;77;21110;-68
2021/03/25 02:30:14;;;;;;;8.30;4.83;;;;;;;-0.80;66.33;99429.27;1849920;77;21508;-67
2021/03/25 02:32:52;;;;;;;7.22;4.85;;;;;;;-0.87;66.52;99430.12;1845925;77;21575;-67
2021/03/25 02:35:38;;;;;;;8.90;4.60;;;;;;;-0.91;66.73;99427.12;1849625;77;21063;-67
2021/03/25 02:38:14;;;;;;;8.33;4.62;;;;;;;-0.96;67.02;99427.94;1849862;77;21024;-67
2021/03/25 02:40:57;;;;;;;8.33;4.70;;;;;;;-1.02;67.23;99427.52;1849430;77;21043;-68
2021/03/25 02:44:02;;;;;;;7.65;4.95;;;;;;;-1.06;67.29;99429.20;1828576;77;21460;-68
2021/03/25 02:46:43;;;;;;;7.55;4.22;;;;;;;-1.10;67.47;99430.02;1816457;79;21452;-67
2021/03/25 02:49:14;;;;;;;9.40;5.30;;;;;;;-1.15;67.63;99421.48;1816356;79;21134;-67
2021/03/25 02:51:53;;;;;;;7.17;4.45;;;;;;;-1.20;67.64;99424.88;1816589;79;21051;-67
2021/03/25 02:54:21;;;;;;;6.20;4.62;;;;;;;-1.23;67.78;99428.69;1816548;79;21102;-67
2021/03/25 02:56:55;;;;;;;7.28;4.53;;;;;;;-1.28;67.96;99432.91;1816495;79;21142;-67
2021/03/25 02:59:31;;;;;;;5.50;3.95;;;;;;;-1.31;68.11;99427.78;1816541;79;22195;-67
2021/03/25 03:02:14;;;;;;;7.03;4.35;;;;;;;-1.34;68.43;99437.97;1816483;78;21607;-67
2021/03/25 03:04:43;;;;;;;7.40;4.25;;;;;;;-1.38;68.44;99435.81;1805469;79;21067;-67
2021/03/25 03:07:22;;;;;;;7.05;4.53;;;;;;;-1.41;68.54;99434.55;1816460;79;21122;-67
2021/03/25 03:09:57;;;;;;;6.35;4.10;;;;;;;-1.44;68.67;99431.97;1814076;79;21114;-67
2021/03/25 03:12:32;;;;;;;7.12;4.58;;;;;;;-1.48;68.74;99438.75;1811090;79;21382;-67
2021/03/25 03:15:11;;;;;;;6.30;4.42;;;;;;;-1.51;68.83;99439.14;1811730;79;21115;-67
2021/03/25 03:17:48;;;;;;;6.45;4.40;;;;;;;-1.55;68.87;99434.86;1811576;79;21560;-68
2021/03/25 03:20:32;;;;;;;7.40;4.72;;;;;;;-1.56;68.91;99428.05;1873622;76;22626;-67
2021/03/25 03:23:01;;;;;;;7.72;5.17;;;;;;;-1.62;68.95;99430.59;1840304;78;21099;-67
2021/03/25 03:25:31;;;;;;;5.87;4.42;;;;;;;-1.63;68.95;99432.70;1841675;78;22058;-66
2021/03/25 03:28:07;;;;;;;7.15;4.87;;;;;;;-1.67;69.00;99425.45;1841510;78;21569;-67
2021/03/25 03:30:38;;;;;;;9.40;4.80;;;;;;;-1.70;69.01;99430.94;1811716;78;21470;-67
2021/03/25 03:33:34;;;;;;;8.20;4.42;;;;;;;-1.69;69.14;99440.30;1839204;78;21003;-66
2021/03/25 03:36:06;;;;;;;7.55;3.95;;;;;;;-1.67;69.08;99430.97;1841858;77;21529;-67
2021/03/25 03:38:54;;;;;;;7.08;4.05;;;;;;;-1.65;68.97;99429.28;1812074;78;26734;-67
2021/03/25 03:41:33;;;;;;;7.70;4.55;;;;;;;-1.61;68.96;99420.81;1841623;78;21596;-67
2021/03/25 03:44:07;;;;;;;6.22;3.92;;;;;;;-1.57;68.93;99430.17;1812406;78;21125;-67
2021/03/25 03:46:35;;;;;;;7.08;4.40;;;;;;;-1.52;68.83;99437.44;1808619;79;21486;-67
2021/03/25 03:49:19;;;;;;;5.22;3.25;;;;;;;-1.46;68.82;99433.66;1808562;79;21125;-67
2021/03/25 03:51:53;;;;;;;5.55;3.83;;;;;;;-1.40;68.84;99438.80;1782151;79;23444;-67
2021/03/25 03:54:23;;;;;;;6.08;4.37;;;;;;;-1.35;68.73;99442.21;1808491;79;21077;-67
2021/03/25 03:57:07;;;;;;;5.42;4.15;;;;;;;-1.32;68.65;99443.52;1808505;79;21109;-67
2021/03/25 03:59:47;;;;;;;5.65;3.90;;;;;;;-1.28;68.65;99443.11;1802578;79;21061;-66
2021/03/25 04:02:39;;;;;;;5.92;4.53;;;;;;;-1.23;68.56;99444.85;1808568;79;21046;-67
2021/03/25 04:05:26;;;;;;;7.20;3.67;;;;;;;-1.22;68.53;99440.18;1807360;78;22070;-68
2021/03/25 04:08:23;;;;;;;11.10;3.90;;;;;;;-1.18;68.49;99446.98;1804005;79;21068;-68
2021/03/25 04:11:15;;;;;;;8.25;4.12;;;;;;;-1.11;68.23;99441.50;1873651;75;22713;-67
2021/03/25 04:14:02;;;;;;;8.78;3.75;;;;;;;-1.13;67.98;99439.36;1841607;77;20994;-67
2021/03/25 04:16:31;;;;;;;8.60;4.37;;;;;;;-1.13;67.93;99440.20;1841040;77;22261;-67
2021/03/25 04:19:20;;;;;;;6.87;5.17;;;;;;;-1.14;67.93;99440.20;1841642;78;21014;-67
2021/03/25 04:22:08;;;;;;;6.92;4.75;;;;;;;-1.08;68.12;99441.09;1820101;77;22671;-67
2021/03/25 04:24:47;;;;;;;7.22;4.20;;;;;;;-1.12;68.22;99447.02;1787802;80;20921;-67
2021/03/25 04:27:22;;;;;;;5.65;4.20;;;;;;;-1.11;68.28;99446.18;1740994;81;21240;-67
2021/03/25 04:30:00;;;;;;;6.50;3.83;;;;;;;-1.09;68.23;99448.73;1791404;80;21028;-67
2021/03/25 04:32:28;;;;;;;6.28;4.28;;;;;;;-1.07;68.24;99452.16;1787789;80;20917;-67
2021/03/25 04:34:56;;;;;;;4.78;3.50;;;;;;;-1.03;68.04;99447.92;1797775;79;20953;-67
2021/03/25 04:37:24;;;;;;;9.03;5.62;;;;;;;-0.96;67.88;99454.74;1787743;80;20937;-67
2021/03/25 04:39:53;;;;;;;9.28;5.50;;;;;;;-0.90;67.64;99459.89;1771428;79;21201;-67
2021/03/25 04:42:21;;;;;;;10.63;7.15;;;;;;;-0.87;67.37;99453.52;1791978;79;21015;-67
2021/03/25 04:44:52;;;;;;;12.60;8.13;;;;;;;-0.82;67.03;99467.17;1766280;81;21034;-67
2021/03/25 04:47:26;;;;;;;14.80;9.33;;;;;;;-0.77;67.12;99461.21;1766284;81;21023;-67
2021/03/25 04:50:06;;;;;;;6.28;4.35;;;;;;;-0.70;66.82;99459.54;1766313;81;21126;-67
2021/03/25 04:52:36;;;;;;;12.13;5.57;;;;;;;-0.64;66.43;99462.13;1766033;81;22095;-66
2021/03/25 04:55:15;;;;;;;8.10;5.60;;;;;;;-0.56;66.29;99459.58;1766198;81;21071;-66
2021/03/25 04:57:56;;;;;;;7.30;4.15;;;;;;;-0.49;65.82;99467.70;1766384;81;21142;-66
2021/03/25 05:00:39;;;;;;;8.70;4.47;;;;;;;-0.42;64.67;99464.32;1766241;81;21116;-68
2021/03/25 05:03:13;;;;;;;11.28;5.03;;;;;;;-0.34;64.23;99465.17;1766415;81;21487;-66
2021/03/25 05:05:42;;;;;;;5.92;4.40;;;;;;;-0.29;64.01;99466.04;1739116;81;21392;-66
2021/03/25 05:08:20;;;;;;;9.03;4.85;;;;;;;-0.22;63.99;99461.38;1766203;81;21102;-68
2021/03/25 05:11:05;;;;;;;6.65;4.20;;;;;;;-0.17;63.66;99462.64;1766251;81;21499;-66
2021/03/25 05:13:37;;;;;;;7.03;4.30;;;;;;;-0.10;63.30;99465.64;1766371;81;21561;-66
2021/03/25 05:16:49;;;;;;;8.05;4.97;;;;;;;-0.03;63.26;99470.78;1766330;81;21051;-67
2021/03/25 05:19:23;;;;;;;9.68;5.53;;;;;;;0.05;62.88;99473.75;1766407;81;21390;-68
2021/03/25 05:22:18;;;;;;;12.28;6.78;;;;;;;0.10;62.58;99465.66;1754757;81;20989;-68
2021/03/25 05:25:09;;;;;;;7.62;4.92;;;;;;;0.13;62.54;99476.75;1749404;82;21195;-68
2021/03/25 05:27:52;;;;;;;21.25;4.95;;;;;;;0.22;62.57;99474.60;1814564;79;21472;-68
2021/03/25 05:30:27;;;;;;;15.35;5.15;;;;;;;0.26;62.43;99473.75;1815346;79;21094;-68
2021/03/25 05:33:02;;;;;;;11.40;4.30;;;;;;;0.32;62.05;99465.66;1814826;79;21187;-67
2021/03/25 05:35:35;;;;;;;11.43;5.12;;;;;;;0.42;61.64;99474.59;1814786;79;21566;-67
2021/03/25 05:38:03;;;;;;;8.60;4.00;;;;;;;0.48;61.55;99479.72;1814995;79;21091;-67
2021/03/25 05:40:50;;;;;;;7.78;4.00;;;;;;;0.53;60.67;99469.91;1814683;77;21146;-67
2021/03/25 05:43:58;;;;;;;10.40;4.17;;;;;;;0.58;60.36;99477.59;1814637;78;21063;-68
2021/03/25 05:47:09;;;;;;;10.50;3.92;;;;;;;0.64;60.35;99475.85;1814765;79;21319;-67
2021/03/25 05:50:02;;;;;;;7.00;4.30;;;;;;;0.75;60.43;99486.09;1814822;79;20948;-66
2021/03/25 05:52:59;;;;;;;9.75;4.22;;;;;;;0.82;59.55;99481.36;1814740;79;21770;-66
2021/03/25 05:55:54;;;;;;;10.05;4.03;;;;;;;0.89;59.11;99484.34;1814650;79;21134;-67
2021/03/25 05:58:34;;;;;;;16.20;4.08;;;;;;;0.92;58.88;99477.94;1814746;79;21110;-67
2021/03/25 06:01:28;;;;;;;7.12;3.08;;;;;;;1.02;59.10;99488.56;1783011;79;21378;-67
2021/03/25 06:04:03;;;;;;;12.80;5.35;;;;;;;1.12;56.96;99487.27;1780536;79;21192;-67
2021/03/25 06:07:03;;;;;;;7.08;3.60;;;;;;;1.18;56.65;99482.14;1814446;78;21126;-71
2021/03/25 06:09:47;;;;;;;5.90;4.25;;;;;;;1.18;56.06;99486.84;1814776;78;21106;-67
2021/03/25 06:12:43;;;;;;;10.58;4.00;;;;;;;1.23;56.05;99491.48;1814639;78;21046;-68
2021/03/25 06:15:52;;;;;;;5.80;3.62;;;;;;;1.29;56.19;99489.34;1814642;79;22183;-66
2021/03/25 06:18:47;;;;;;;11.55;3.87;;;;;;;1.40;55.21;99495.72;1814663;78;21569;-66
2021/03/25 06:21:51;;;;;;;7.60;3.33;;;;;;;1.46;55.18;99489.27;1818411;78;20912;-68
2021/03/25 06:24:39;;;;;;;5.35;3.30;;;;;;;1.49;53.85;99496.95;1803324;78;21188;-67
2021/03/25 06:27:22;;;;;;;8.48;3.70;;;;;;;1.48;53.27;99483.70;1823495;78;21051;-69
2021/03/25 06:29:53;;;;;;;11.10;3.67;;;;;;;1.41;53.35;99477.75;1823839;78;21394;-68
2021/03/25 06:32:46;;;;;;;6.45;3.20;;;;;;;1.34;53.84;99483.35;1823565;78;21093;-68
2021/03/25 06:35:19;;;;;;;5.28;3.27;;;;;;;1.31;53.98;99485.06;1823680;78;21107;-60
2021/03/25 06:38:03;;;;;;;6.25;3.58;;;;;;;1.31;53.06;99485.06;1823590;77;21694;-61
2021/03/25 06:40:40;;;;;;;5.17;3.30;;;;;;;1.31;53.59;99483.36;1803912;78;21098;-61
2021/03/25 06:43:25;;;;;;;5.05;3.02;;;;;;;1.34;54.04;99487.19;1823471;78;21411;-61
2021/03/25 06:46:07;;;;;;;6.50;3.22;;;;;;;1.36;53.39;99493.17;1823473;78;21129;-61
2021/03/25 06:48:53;;;;;;;5.75;3.10;;;;;;;1.39;53.21;99494.87;1822619;78;21058;-62
2021/03/25 06:51:28;;;;;;;5.75;2.83;;;;;;;1.45;52.81;99492.26;1822296;78;21205;-63
2021/03/25 06:54:15;;;;;;;4.40;2.80;;;;;;;1.60;50.32;99499.05;1888468;76;22252;-63
2021/03/25 06:56:46;;;;;;;7.08;3.55;;;;;;;1.65;50.56;99483.19;1775528;80;21063;-63
2021/03/25 06:59:30;;;;;;;7.15;2.50;;;;;;;1.78;50.99;99489.13;1849625;77;21309;-64
2021/03/25 07:02:21;;;;;;;12.93;3.90;;;;;;;1.92;49.12;99492.44;1849825;77;21558;-62
2021/03/25 07:04:52;;;;;;;14.80;3.83;;;;;;;2.05;49.18;99498.75;1849303;77;21182;-65
2021/03/25 07:07:27;;;;;;;6.47;3.35;;;;;;;2.10;48.07;99496.59;1849887;77;21542;-64
2021/03/25 07:09:59;;;;;;;7.05;3.02;;;;;;;2.02;48.08;99500.05;1849632;77;21583;-67
2021/03/25 07:12:34;;;;;;;;;;;;;;;1.96;49.01;99491.14;1852209;77;21036;-66
2021/03/25 07:15:03;;;;;;;6.47;3.10;;;;;;;1.93;48.02;99501.84;1818970;77;20218;-65
2021/03/25 07:17:43;;;;;;;4.62;2.58;;;;;;;1.90;48.89;99500.14;1849912;77;21480;-68
2021/03/25 07:20:33;;;;;;;5.80;3.00;;;;;;;1.96;49.31;99495.42;1849532;77;21039;-67
2021/03/25 07:23:11;;;;;;;6.03;2.90;;;;;;;2.01;48.08;99495.78;1849649;77;21643;-67
2021/03/25 07:25:44;;;;;;;6.10;2.62;;;;;;;1.98;48.27;99502.24;1849240;77;21354;-67
2021/03/25 07:28:19;;;;;;;5.35;3.12;;;;;;;1.95;47.97;99495.84;1848616;77;21166;-65
2021/03/25 07:30:55;;;;;;;4.87;2.65;;;;;;;1.95;48.45;99494.56;1818949;77;21130;-66
2021/03/25 07:33:25;;;;;;;5.25;2.40;;;;;;;1.99;48.02;99494.97;1849723;77;21071;-65
2021/03/25 07:36:09;;;;;;;8.15;2.62;;;;;;;2.03;47.93;99503.04;1794164;77;21468;-66
2021/03/25 07:38:40;;;;;;;4.37;3.00;;;;;;;2.10;47.88;99489.75;1849781;77;21267;-65
2021/03/25 07:41:24;;;;;;;6.97;2.80;;;;;;;2.22;48.37;99490.08;1849708;77;21559;-65
2021/03/25 07:44:10;;;;;;;4.33;2.35;;;;;;;2.34;47.78;99493.85;1823212;77;21067;-66
2021/03/25 07:46:47;;;;;;;5.60;2.70;;;;;;;2.42;45.74;99492.91;1813552;79;21083;-67
2021/03/25 07:49:18;;;;;;;4.50;2.45;;;;;;;2.49;45.91;99478.75;1816456;78;21070;-66
2021/03/25 07:52:05;;;;;;;7.45;2.72;;;;;;;2.56;46.12;99480.41;1787106;79;21480;-66
2021/03/25 07:54:42;;;;;;;4.25;2.62;;;;;;;2.61;45.29;99488.46;1816402;79;21150;-66
2021/03/25 07:57:23;;;;;;;5.62;2.58;;;;;;;2.72;45.48;99491.80;1816326;79;21576;-67
2021/03/25 07:59:58;;;;;;;3.58;2.20;;;;;;;2.82;44.80;99491.69;1816380;79;21040;-65
2021/03/25 08:02:36;;;;;;;6.53;2.00;;;;;;;2.87;44.46;99498.93;1816386;79;21043;-66
2021/03/25 08:05:32;;;;;;;5.47;2.20;;;;;;;2.87;44.03;99490.79;1813603;78;22106;-66
2021/03/25 08:08:21;;;;;;;4.10;2.40;;;;;;;2.84;44.02;99497.23;1814970;79;21138;-66
2021/03/25 08:10:54;;;;;;;9.83;3.02;;;;;;;2.81;44.74;99481.00;1815792;79;21068;-66
2021/03/25 08:13:26;;;;;;;5.33;2.62;;;;;;;2.85;43.85;99484.81;1813818;78;21050;-67
2021/03/25 08:16:11;;;;;;;6.28;2.27;;;;;;;2.88;44.13;99491.21;1815724;79;21096;-66
2021/03/25 08:19:10;;;;;;;6.53;2.27;;;;;;;2.92;43.94;99483.89;1815827;79;21376;-67
2021/03/25 08:21:56;;;;;;;4.78;2.40;;;;;;;2.96;43.85;99483.44;1815661;78;21146;-66
2021/03/25 08:25:12;;;;;;;3.60;2.10;;;;;;;2.98;44.57;99478.70;1815784;79;21927;-66
2021/03/25 08:28:19;;;;;;;3.77;2.27;;;;;;;3.05;43.78;99492.31;1815797;79;21507;-64
2021/03/25 08:31:09;;;;;;;3.02;2.00;;;;;;;3.15;42.73;99487.50;1805155;79;21131;-67
2021/03/25 08:33:58;;;;;;;2.42;1.50;;;;;;;3.23;42.06;99480.54;1815368;79;21392;-66
2021/03/25 08:36:56;;;;;;;3.50;1.85;;;;;;;3.32;41.41;99486.02;1806113;79;21198;-66
2021/03/25 08:39:48;;;;;;;4.80;1.90;;;;;;;3.41;41.71;99497.45;1800107;79;21031;-67
2021/03/25 08:42:38;;;;;;;4.30;1.95;;;;;;;3.49;40.72;99496.09;1813913;79;21119;-66
2021/03/25 08:45:50;;;;;;;5.97;1.85;;;;;;;3.56;39.80;99485.72;1815794;79;21142;-67
2021/03/25 08:48:40;;;;;;;;;;;;;;;3.59;39.67;99492.55;1818550;78;21118;-66
2021/03/25 08:51:19;;;;;;;4.87;1.60;;;;;;;3.56;39.21;99497.30;1814055;79;20217;-66
2021/03/25 08:54:32;;;;;;;2.70;1.60;;;;;;;3.54;39.88;99490.46;1815443;78;21123;-68
2021/03/25 08:57:21;;;;;;;3.08;1.77;;;;;;;3.50;39.45;99479.36;1742614;81;21137;-66
2021/03/25 09:00:03;;;;;;;3.55;1.67;;;;;;;3.52;39.62;99490.48;1742276;82;21136;-66
2021/03/25 09:02:43;;;;;;;5.90;2.02;;;;;;;3.52;39.38;99485.34;1741667;82;21406;-66
2021/03/25 09:05:26;;;;;;;4.80;1.80;;;;;;;3.52;39.09;99481.48;1759885;81;21107;-66
2021/03/25 09:07:57;;;;;;;2.47;1.60;;;;;;;3.57;38.64;99476.28;1759850;81;21064;-67
2021/03/25 09:10:47;;;;;;;5.58;1.70;;;;;;;3.65;38.04;99488.16;1733195;81;21214;-66
2021/03/25 09:13:21;;;;;;;2.55;1.57;;;;;;;3.78;38.15;99497.86;1724827;82;21496;-68
2021/03/25 09:15:49;;;;;;;6.70;1.87;;;;;;;3.95;37.34;99477.89;1724304;82;21391;-67
2021/03/25 09:18:20;;;;;;;2.45;1.42;;;;;;;4.13;38.22;99471.61;1752017;82;21619;-67
2021/03/25 09:20:53;;;;;;;4.58;2.17;;;;;;;4.31;38.87;99475.62;1752233;82;21167;-67
2021/03/25 09:23:35;;;;;;;3.58;1.95;;;;;;;4.47;37.35;99498.95;1752304;82;21504;-67
2021/03/25 09:26:18;;;;;;;4.40;1.80;;;;;;;4.52;36.44;99470.55;1752267;82;21076;-68
2021/03/25 09:29:02;;;;;;;4.28;2.12;;;;;;;4.54;36.69;99475.24;1752239;82;21630;-69
2021/03/25 09:31:38;;;;;;;4.62;2.47;;;;;;;4.59;36.36;99477.31;1752089;82;21130;-68
2021/03/25 09:34:26;;;;;;;5.60;2.10;;;;;;;4.61;37.12;99470.38;1752085;82;21171;-68
2021/03/25 09:37:19;;;;;;;6.35;2.22;;;;;;;4.67;36.73;99487.02;1752016;82;21140;-66
2021/03/25 09:40:30;;;;;;;5.10;2.25;;;;;;;4.77;36.81;99471.39;1752187;82;21178;-66
2021/03/25 09:43:30;;;;;;;4.28;2.33;;;;;;;4.92;37.75;99473.27;1751786;81;21363;-67
2021/03/25 09:46:20;;;;;;;3.42;2.27;;;;;;;4.98;36.97;99480.90;1752019;82;21175;-67
2021/03/25 09:48:49;;;;;;;6.70;3.15;;;;;;;4.99;37.23;99488.61;1723039;81;21144;-66
2021/03/25 09:51:25;;;;;;;6.30;2.62;;;;;;;5.06;38.14;99475.98;1727364;83;21211;-68
2021/03/25 09:53:55;;;;;;;6.30;2.62;;;;;;;5.12;36.57;99483.62;1727849;82;21497;-66
2021/03/25 09:56:31;;;;;;;5.30;2.60;;;;;;;5.09;36.65;99477.22;1764406;79;21154;-66
2021/03/25 09:59:01;;;;;;;3.55;2.42;;;;;;;5.03;37.22;99483.77;1764563;80;21130;-66
2021/03/25 10:01:55;;;;;;;5.65;2.30;;;;;;;5.03;36.91;99468.31;1728074;81;21070;-67
2021/03/25 10:04:32;;;;;;;5.00;3.65;;;;;;;5.07;37.50;99473.83;1764787;81;21484;-68
2021/03/25 10:07:21;;;;;;;3.40;2.40;;;;;;;5.05;38.30;99485.04;1728161;81;21550;-66
2021/03/25 10:09:59;;;;;;;13.80;2.85;;;;;;;5.08;36.60;99471.66;1873524;76;22663;-66
2021/03/25 10:12:53;;;;;;;6.35;4.83;;;;;;;5.06;37.42;99477.28;1841660;77;21494;-66
2021/03/25 10:15:41;;;;;;;3.50;2.60;;;;;;;5.12;37.53;99469.88;1840897;78;21157;-67
2021/03/25 10:18:29;;;;;;;6.97;2.45;;;;;;;5.10;36.08;99482.80;1840082;77;21207;-66
2021/03/25 10:21:12;;;;;;;3.70;2.17;;;;;;;5.09;36.62;99480.24;1841624;78;21573;-67
2021/03/25 10:23:55;;;;;;;6.40;3.22;;;;;;;5.10;37.24;99467.33;1811089;78;21109;-67
2021/03/25 10:26:43;;;;;;;3.30;2.67;;;;;;;5.18;37.82;99464.61;1841643;78;21037;-66
2021/03/25 10:29:15;;;;;;;4.42;2.22;;;;;;;5.34;38.99;99470.30;1841441;78;21467;-66
2021/03/25 10:31:51;;;;;;;;;;;;;;;5.51;36.52;99465.64;1844326;78;21054;-66
2021/03/25 10:34:30;;;;;;;6.35;2.30;;;;;;;5.61;35.71;99459.83;1841566;78;20154;-67
2021/03/25 10:37:39;;;;;;;7.47;2.92;;;;;;;5.70;35.07;99460.49;1841473;78;21121;-67
2021/03/25 10:40:22;;;;;;;6.20;2.62;;;;;;;5.84;34.83;99453.28;1840575;77;21498;-65
2021/03/25 10:43:00;;;;;;;9.35;3.20;;;;;;;5.88;34.30;99464.39;1830565;78;21565;-67
2021/03/25 10:45:39;;;;;;;3.90;2.45;;;;;;;5.86;34.63;99455.39;1808382;79;21195;-66
2021/03/25 10:48:38;;;;;;;5.25;3.15;;;;;;;5.85;34.31;99443.37;1807406;79;21168;-66
2021/03/25 10:51:15;;;;;;;5.03;2.80;;;;;;;5.84;35.16;99449.41;1807854;78;21168;-66
2021/03/25 10:53:48;;;;;;;4.12;3.12;;;;;;;5.88;33.65;99454.07;1807755;79;21092;-66
2021/03/25 10:56:20;;;;;;;3.52;2.70;;;;;;;5.86;33.97;99441.20;1804522;79;22270;-66
2021/03/25 10:59:06;;;;;;;4.58;3.10;;;;;;;5.82;32.84;99464.52;1808652;79;21149;-67
2021/03/25 11:01:35;;;;;;;7.97;2.80;;;;;;;5.81;33.22;99437.86;1805605;79;21494;-67
2021/03/25 11:04:29;;;;;;;4.97;3.20;;;;;;;5.85;32.98;99449.82;1808257;79;21105;-66
2021/03/25 11:07:19;;;;;;;4.17;2.72;;;;;;;5.87;33.38;99436.44;1808497;78;21164;-67
2021/03/25 11:10:00;;;;;;;7.05;3.47;;;;;;;5.97;32.38;99442.29;1808179;79;21120;-67
2021/03/25 11:12:32;;;;;;;7.20;2.90;;;;;;;6.01;34.02;99430.13;1808430;78;21625;-68
2021/03/25 11:15:10;;;;;;;4.67;2.60;;;;;;;6.07;32.54;99435.16;1808313;79;21486;-67
2021/03/25 11:17:40;;;;;;;3.75;2.70;;;;;;;6.13;32.80;99433.73;1807819;78;21156;-67
2021/03/25 11:20:14;;;;;;;17.73;4.37;;;;;;;6.15;30.54;99450.89;1779532;79;21106;-67
2021/03/25 11:22:42;;;;;;;4.70;2.70;;;;;;;6.15;31.87;99431.97;1807725;79;21187;-66
2021/03/25 11:25:19;;;;;;;5.80;2.65;;;;;;;6.16;31.52;99444.84;1779302;79;21175;-66
2021/03/25 11:27:47;;;;;;;3.85;2.77;;;;;;;6.13;31.30;99446.20;1807005;79;21073;-67
2021/03/25 11:30:45;;;;;;;4.37;2.60;;;;;;;6.07;31.76;99448.92;1807966;79;21501;-66
2021/03/25 11:33:30;;;;;;;5.22;3.17;;;;;;;6.03;31.57;99437.40;1807846;79;21077;-67
2021/03/25 11:36:01;;;;;;;7.42;5.05;;;;;;;6.06;33.48;99438.63;1795846;79;21398;-66
2021/03/25 11:38:37;;;;;;;5.40;4.10;;;;;;;6.15;34.57;99439.27;1807741;79;21113;-68
2021/03/25 11:41:22;;;;;;;6.87;3.60;;;;;;;6.26;34.02;99441.58;1778638;79;21498;-67
2021/03/25 11:43:54;;;;;;;13.65;3.60;;;;;;;6.29;32.29;99431.62;1781955;78;21109;-66
2021/03/25 11:46:36;;;;;;;5.95;3.12;;;;;;;6.29;33.19;99423.42;1807786;79;21077;-66
2021/03/25 11:49:17;;;;;;;12.45;3.62;;;;;;;6.31;32.08;99424.23;1807688;79;21130;-67
2021/03/25 11:52:02;;;;;;;4.30;2.60;;;;;;;6.34;32.03;99422.88;1712292;83;21106;-68
2021/03/25 11:54:38;;;;;;;8.00;6.17;;;;;;;6.36;31.52;99444.35;1712243;82;21535;-66
2021/03/25 11:57:22;;;;;;;6.80;2.95;;;;;;;6.33;30.50;99426.79;1688451;83;21109;-67
2021/03/25 12:00:18;;;;;;;4.75;2.45;;;;;;;6.26;31.54;99423.50;1712237;83;21621;-66
2021/03/25 12:02:46;;;;;;;3.45;2.70;;;;;;;6.22;30.68;99427.03;1702697;82;21269;-66
2021/03/25 12:05:39;;;;;;;3.70;2.52;;;;;;;6.20;30.86;99421.91;1712100;83;21122;-68
2021/03/25 12:08:19;;;;;;;6.43;3.67;;;;;;;6.19;32.66;99423.27;1712383;83;21187;-67
2021/03/25 12:10:46;;;;;;;2.65;2.17;;;;;;;6.22;32.90;99420.58;1786543;79;21041;-68
2021/03/25 12:13:15;;;;;;;4.72;2.27;;;;;;;6.26;30.88;99406.70;1708963;79;21068;-68
2021/03/25 12:15:44;;;;;;;4.53;2.02;;;;;;;6.25;30.65;99408.88;1807716;78;21316;-63
2021/03/25 12:18:26;;;;;;;7.25;2.87;;;;;;;6.25;30.96;99407.59;1807692;79;21142;-62
2021/03/25 12:20:57;;;;;;;3.83;2.10;;;;;;;6.26;31.15;99416.19;1806894;79;21180;-65
2021/03/25 12:23:28;;;;;;;6.90;2.00;;;;;;;6.29;29.38;99403.20;1806390;78;21218;-65
2021/03/25 12:25:59;;;;;;;6.28;2.25;;;;;;;6.30;29.67;99412.21;1777434;79;21688;-63
2021/03/25 12:28:26;;;;;;;5.65;2.30;;;;;;;6.33;30.66;99405.68;1806681;78;21362;-64
2021/03/25 12:30:57;;;;;;;3.62;2.17;;;;;;;6.36;31.12;99408.63;1807235;79;21050;-62
2021/03/25 12:33:30;;;;;;;;;;;;;;;6.38;30.68;99414.17;1781327;79;21206;-64
2021/03/25 12:36:00;;;;;;;3.27;2.10;;;;;;;6.38;30.45;99410.30;1806713;78;20276;-63
2021/03/25 12:38:27;;;;;;;2.50;2.00;;;;;;;6.38;31.57;99409.00;1807684;79;21081;-62
2021/03/25 12:40:57;;;;;;;4.72;2.47;;;;;;;6.37;30.52;99398.27;1807781;79;21261;-62